sensor_id;sensor_type;location;lat;lon;timestamp;P1;durP1;ratioP1;P2;durP2;ratioP2
49193;SDS011;35029;50.804;12.866;2022-08-01T00:00:05;4.22;;;3.88;;
49193;SDS011;35029;50.804;12.866;2022-08-01T00:02:33;5.00;;;4.00;;
49193;SDS011;35029;50.804;12.866;2022-08-01T00:04:58;4.60;;;4.20;;
49193;SDS011;35029;50.804;12.866;2022-08-01T00:07:25;6.00;;;4.60;;
49193;SDS011;35029;50.804;12.866;2022-08-01T00:09:51;4.03;;;3.72;;
49193;SDS011;35029;50.804;12.866;2022-08-01T00:12:16;7.05;;;3.83;;
49193;SDS011;35029;50.804;12.866;2022-08-01T00:14:42;4.45;;;4.03;;
49193;SDS011;35029;50.804;12.866;2022-08-01T00:17:07;5.25;;;4.18;;
49193;SDS011;35029;50.804;12.866;2022-08-01T00:19:33;7.97;;;4.45;;
49193;SDS011;35029;50.804;12.866;2022-08-01T00:21:59;5.15;;;4.55;;
49193;SDS011;35029;50.804;12.866;2022-08-01T00:24:24;6.25;;;4.32;;
49193;SDS011;35029;50.804;12.866;2022-08-01T00:26:50;4.00;;;3.42;;
49193;SDS011;35029;50.804;12.866;2022-08-01T00:29:15;5.57;;;3.60;;
49193;SDS011;35029;50.804;12.866;2022-08-01T00:31:41;7.50;;;4.20;;
49193;SDS011;35029;50.804;12.866;2022-08-01T00:34:06;5.88;;;4.45;;
49193;SDS011;35029;50.804;12.866;2022-08-01T00:36:32;4.93;;;3.97;;
49193;SDS011;35029;50.804;12.866;2022-08-01T00:38:57;5.57;;;4.88;;
49193;SDS011;35029;50.804;12.866;2022-08-01T00:41:23;4.13;;;3.53;;
49193;SDS011;35029;50.804;12.866;2022-08-01T00:43:48;4.35;;;4.03;;
49193;SDS011;35029;50.804;12.866;2022-08-01T00:46:14;4.78;;;4.07;;
49193;SDS011;35029;50.804;12.866;2022-08-01T00:48:39;7.50;;;4.40;;
49193;SDS011;35029;50.804;12.866;2022-08-01T00:51:05;10.65;;;4.30;;
49193;SDS011;35029;50.804;12.866;2022-08-01T00:53:32;5.00;;;4.18;;
49193;SDS011;35029;50.804;12.866;2022-08-01T00:55:59;4.80;;;4.40;;
49193;SDS011;35029;50.804;12.866;2022-08-01T00:58:26;4.30;;;4.00;;
49193;SDS011;35029;50.804;12.866;2022-08-01T01:00:55;4.30;;;4.00;;
49193;SDS011;35029;50.804;12.866;2022-08-01T01:03:21;3.97;;;3.67;;
49193;SDS011;35029;50.804;12.866;2022-08-01T01:05:51;4.95;;;4.47;;
49193;SDS011;35029;50.804;12.866;2022-08-01T01:08:24;6.10;;;4.15;;
49193;SDS011;35029;50.804;12.866;2022-08-01T01:11:01;6.07;;;4.80;;
49193;SDS011;35029;50.804;12.866;2022-08-01T01:16:22;4.65;;;4.20;;
49193;SDS011;35029;50.804;12.866;2022-08-01T01:18:51;5.18;;;4.78;;
49193;SDS011;35029;50.804;12.866;2022-08-01T01:23:48;4.82;;;4.43;;
49193;SDS011;35029;50.804;12.866;2022-08-01T01:26:29;4.68;;;4.28;;
49193;SDS011;35029;50.804;12.866;2022-08-01T01:31:59;4.95;;;4.30;;
49193;SDS011;35029;50.804;12.866;2022-08-01T01:34:38;7.28;;;4.88;;
49193;SDS011;35029;50.804;12.866;2022-08-01T01:37:09;4.10;;;3.78;;
49193;SDS011;35029;50.804;12.866;2022-08-01T01:39:40;4.75;;;4.35;;
49193;SDS011;35029;50.804;12.866;2022-08-01T01:42:08;4.70;;;4.30;;
49193;SDS011;35029;50.804;12.866;2022-08-01T01:44:35;4.93;;;4.45;;
49193;SDS011;35029;50.804;12.866;2022-08-01T01:47:02;7.22;;;5.00;;
49193;SDS011;35029;50.804;12.866;2022-08-01T01:49:28;6.90;;;4.57;;
49193;SDS011;35029;50.804;12.866;2022-08-01T01:51:56;10.70;;;4.47;;
49193;SDS011;35029;50.804;12.866;2022-08-01T01:54:30;5.38;;;4.82;;
49193;SDS011;35029;50.804;12.866;2022-08-01T01:56:59;5.18;;;4.40;;
49193;SDS011;35029;50.804;12.866;2022-08-01T01:59:29;5.30;;;4.35;;
49193;SDS011;35029;50.804;12.866;2022-08-01T02:02:04;4.97;;;4.43;;
49193;SDS011;35029;50.804;12.866;2022-08-01T02:04:32;4.75;;;4.20;;
49193;SDS011;35029;50.804;12.866;2022-08-01T02:07:00;7.03;;;4.00;;
49193;SDS011;35029;50.804;12.866;2022-08-01T02:09:28;5.18;;;4.18;;
49193;SDS011;35029;50.804;12.866;2022-08-01T02:11:56;4.88;;;4.20;;
49193;SDS011;35029;50.804;12.866;2022-08-01T02:14:24;6.57;;;4.10;;
49193;SDS011;35029;50.804;12.866;2022-08-01T02:16:52;5.40;;;4.25;;
49193;SDS011;35029;50.804;12.866;2022-08-01T02:19:22;4.97;;;4.28;;
49193;SDS011;35029;50.804;12.866;2022-08-01T02:21:51;4.03;;;3.72;;
49193;SDS011;35029;50.804;12.866;2022-08-01T02:27:04;3.70;;;3.40;;
49193;SDS011;35029;50.804;12.866;2022-08-01T02:29:43;7.20;;;4.15;;
49193;SDS011;35029;50.804;12.866;2022-08-01T02:32:16;4.43;;;4.03;;
49193;SDS011;35029;50.804;12.866;2022-08-01T02:35:01;5.18;;;4.68;;
49193;SDS011;35029;50.804;12.866;2022-08-01T02:37:31;4.47;;;4.07;;
49193;SDS011;35029;50.804;12.866;2022-08-01T02:39:58;4.25;;;3.90;;
49193;SDS011;35029;50.804;12.866;2022-08-01T02:42:25;5.15;;;4.15;;
49193;SDS011;35029;50.804;12.866;2022-08-01T02:44:53;4.20;;;3.88;;
49193;SDS011;35029;50.804;12.866;2022-08-01T02:47:20;5.13;;;4.65;;
49193;SDS011;35029;50.804;12.866;2022-08-01T02:49:48;4.30;;;4.00;;
49193;SDS011;35029;50.804;12.866;2022-08-01T02:52:17;4.28;;;3.88;;
49193;SDS011;35029;50.804;12.866;2022-08-01T02:54:45;5.20;;;4.38;;
49193;SDS011;35029;50.804;12.866;2022-08-01T02:57:12;5.25;;;4.75;;
49193;SDS011;35029;50.804;12.866;2022-08-01T02:59:39;4.38;;;3.97;;
49193;SDS011;35029;50.804;12.866;2022-08-01T03:02:07;6.38;;;4.03;;
49193;SDS011;35029;50.804;12.866;2022-08-01T03:04:35;4.40;;;4.00;;
49193;SDS011;35029;50.804;12.866;2022-08-01T03:07:03;4.43;;;4.07;;
49193;SDS011;35029;50.804;12.866;2022-08-01T03:09:30;4.78;;;4.28;;
49193;SDS011;35029;50.804;12.866;2022-08-01T03:12:00;4.70;;;4.20;;
49193;SDS011;35029;50.804;12.866;2022-08-01T03:14:27;4.90;;;4.50;;
49193;SDS011;35029;50.804;12.866;2022-08-01T03:16:55;5.05;;;4.50;;
49193;SDS011;35029;50.804;12.866;2022-08-01T03:19:24;4.82;;;4.38;;
49193;SDS011;35029;50.804;12.866;2022-08-01T03:21:51;7.72;;;4.03;;
49193;SDS011;35029;50.804;12.866;2022-08-01T03:24:19;5.15;;;4.57;;
49193;SDS011;35029;50.804;12.866;2022-08-01T03:26:46;8.55;;;4.88;;
49193;SDS011;35029;50.804;12.866;2022-08-01T03:29:19;5.45;;;4.18;;
49193;SDS011;35029;50.804;12.866;2022-08-01T03:31:47;6.20;;;4.20;;
49193;SDS011;35029;50.804;12.866;2022-08-01T03:34:14;4.95;;;4.55;;
49193;SDS011;35029;50.804;12.866;2022-08-01T03:39:31;5.05;;;4.40;;
49193;SDS011;35029;50.804;12.866;2022-08-01T03:42:07;12.77;;;5.07;;
49193;SDS011;35029;50.804;12.866;2022-08-01T03:44:38;4.50;;;4.20;;
49193;SDS011;35029;50.804;12.866;2022-08-01T03:47:07;5.35;;;4.18;;
49193;SDS011;35029;50.804;12.866;2022-08-01T03:49:35;5.10;;;4.47;;
49193;SDS011;35029;50.804;12.866;2022-08-01T03:52:07;4.60;;;4.20;;
49193;SDS011;35029;50.804;12.866;2022-08-01T03:54:36;5.47;;;4.55;;
49193;SDS011;35029;50.804;12.866;2022-08-01T03:57:11;7.25;;;4.10;;
49193;SDS011;35029;50.804;12.866;2022-08-01T03:59:37;4.50;;;4.10;;
49193;SDS011;35029;50.804;12.866;2022-08-01T04:02:03;4.63;;;4.15;;
49193;SDS011;35029;50.804;12.866;2022-08-01T04:04:30;4.43;;;3.75;;
49193;SDS011;35029;50.804;12.866;2022-08-01T04:06:56;3.83;;;3.42;;
49193;SDS011;35029;50.804;12.866;2022-08-01T04:09:22;4.30;;;3.90;;
49193;SDS011;35029;50.804;12.866;2022-08-01T04:11:47;4.22;;;3.72;;
49193;SDS011;35029;50.804;12.866;2022-08-01T04:14:14;4.60;;;4.18;;
49193;SDS011;35029;50.804;12.866;2022-08-01T04:16:39;5.50;;;4.38;;
49193;SDS011;35029;50.804;12.866;2022-08-01T04:19:05;8.57;;;4.28;;
49193;SDS011;35029;50.804;12.866;2022-08-01T04:21:33;5.03;;;4.45;;
49193;SDS011;35029;50.804;12.866;2022-08-01T04:24:05;7.63;;;4.03;;
49193;SDS011;35029;50.804;12.866;2022-08-01T04:26:40;6.53;;;4.78;;
49193;SDS011;35029;50.804;12.866;2022-08-01T04:29:08;4.80;;;4.40;;
49193;SDS011;35029;50.804;12.866;2022-08-01T04:31:35;5.45;;;4.80;;
49193;SDS011;35029;50.804;12.866;2022-08-01T04:34:04;7.82;;;4.22;;
49193;SDS011;35029;50.804;12.866;2022-08-01T04:36:32;8.10;;;4.72;;
49193;SDS011;35029;50.804;12.866;2022-08-01T04:39:00;5.28;;;4.55;;
49193;SDS011;35029;50.804;12.866;2022-08-01T04:41:29;5.18;;;4.72;;
49193;SDS011;35029;50.804;12.866;2022-08-01T04:43:56;5.22;;;4.70;;
49193;SDS011;35029;50.804;12.866;2022-08-01T04:46:24;5.50;;;5.00;;
49193;SDS011;35029;50.804;12.866;2022-08-01T04:48:51;6.53;;;4.25;;
49193;SDS011;35029;50.804;12.866;2022-08-01T04:51:17;5.20;;;4.50;;
49193;SDS011;35029;50.804;12.866;2022-08-01T04:53:47;6.60;;;4.40;;
49193;SDS011;35029;50.804;12.866;2022-08-01T04:56:13;7.45;;;4.47;;
49193;SDS011;35029;50.804;12.866;2022-08-01T04:58:42;4.78;;;4.32;;
49193;SDS011;35029;50.804;12.866;2022-08-01T05:01:08;5.22;;;4.72;;
49193;SDS011;35029;50.804;12.866;2022-08-01T05:03:34;7.57;;;4.72;;
49193;SDS011;35029;50.804;12.866;2022-08-01T05:06:00;5.03;;;4.28;;
49193;SDS011;35029;50.804;12.866;2022-08-01T05:08:26;6.35;;;4.38;;
49193;SDS011;35029;50.804;12.866;2022-08-01T05:10:51;4.95;;;4.40;;
49193;SDS011;35029;50.804;12.866;2022-08-01T05:13:18;4.97;;;4.45;;
49193;SDS011;35029;50.804;12.866;2022-08-01T05:15:43;7.38;;;5.20;;
49193;SDS011;35029;50.804;12.866;2022-08-01T05:18:09;8.73;;;4.68;;
49193;SDS011;35029;50.804;12.866;2022-08-01T05:20:35;6.80;;;4.95;;
49193;SDS011;35029;50.804;12.866;2022-08-01T05:23:02;7.82;;;5.47;;
49193;SDS011;35029;50.804;12.866;2022-08-01T05:25:28;5.45;;;4.95;;
49193;SDS011;35029;50.804;12.866;2022-08-01T05:27:53;7.57;;;4.88;;
49193;SDS011;35029;50.804;12.866;2022-08-01T05:30:19;5.28;;;4.78;;
49193;SDS011;35029;50.804;12.866;2022-08-01T05:32:45;5.18;;;4.50;;
49193;SDS011;35029;50.804;12.866;2022-08-01T05:35:10;6.82;;;4.35;;
49193;SDS011;35029;50.804;12.866;2022-08-01T05:37:36;7.57;;;4.85;;
49193;SDS011;35029;50.804;12.866;2022-08-01T05:40:02;4.78;;;4.38;;
49193;SDS011;35029;50.804;12.866;2022-08-01T05:42:28;5.63;;;4.60;;
49193;SDS011;35029;50.804;12.866;2022-08-01T05:44:54;5.20;;;4.70;;
49193;SDS011;35029;50.804;12.866;2022-08-01T05:47:19;5.18;;;4.70;;
49193;SDS011;35029;50.804;12.866;2022-08-01T05:49:45;4.55;;;4.15;;
49193;SDS011;35029;50.804;12.866;2022-08-01T05:52:11;4.35;;;3.72;;
49193;SDS011;35029;50.804;12.866;2022-08-01T05:54:37;4.85;;;3.58;;
49193;SDS011;35029;50.804;12.866;2022-08-01T05:57:02;4.60;;;4.10;;
49193;SDS011;35029;50.804;12.866;2022-08-01T05:59:28;4.50;;;4.10;;
49193;SDS011;35029;50.804;12.866;2022-08-01T06:01:54;4.07;;;3.67;;
49193;SDS011;35029;50.804;12.866;2022-08-01T06:04:20;4.30;;;3.90;;
49193;SDS011;35029;50.804;12.866;2022-08-01T06:06:46;9.52;;;4.07;;
49193;SDS011;35029;50.804;12.866;2022-08-01T06:09:11;4.70;;;4.18;;
49193;SDS011;35029;50.804;12.866;2022-08-01T06:11:37;6.15;;;4.07;;
49193;SDS011;35029;50.804;12.866;2022-08-01T06:14:03;3.72;;;3.38;;
49193;SDS011;35029;50.804;12.866;2022-08-01T06:16:29;4.07;;;3.67;;
49193;SDS011;35029;50.804;12.866;2022-08-01T06:18:55;3.97;;;3.60;;
49193;SDS011;35029;50.804;12.866;2022-08-01T06:21:20;4.00;;;3.70;;
49193;SDS011;35029;50.804;12.866;2022-08-01T06:23:45;3.90;;;3.58;;
49193;SDS011;35029;50.804;12.866;2022-08-01T06:26:11;3.58;;;3.15;;
49193;SDS011;35029;50.804;12.866;2022-08-01T06:28:37;4.93;;;4.05;;
49193;SDS011;35029;50.804;12.866;2022-08-01T06:31:03;5.78;;;3.65;;
49193;SDS011;35029;50.804;12.866;2022-08-01T06:33:29;5.60;;;3.63;;
49193;SDS011;35029;50.804;12.866;2022-08-01T06:35:55;4.28;;;3.60;;
49193;SDS011;35029;50.804;12.866;2022-08-01T06:38:20;4.38;;;3.40;;
49193;SDS011;35029;50.804;12.866;2022-08-01T06:40:46;8.25;;;3.70;;
49193;SDS011;35029;50.804;12.866;2022-08-01T06:43:12;4.32;;;3.53;;
49193;SDS011;35029;50.804;12.866;2022-08-01T06:45:38;3.47;;;3.00;;
49193;SDS011;35029;50.804;12.866;2022-08-01T06:48:04;3.25;;;2.95;;
49193;SDS011;35029;50.804;12.866;2022-08-01T06:50:30;3.00;;;2.70;;
49193;SDS011;35029;50.804;12.866;2022-08-01T06:52:56;3.40;;;2.85;;
49193;SDS011;35029;50.804;12.866;2022-08-01T06:55:22;3.45;;;2.70;;
49193;SDS011;35029;50.804;12.866;2022-08-01T06:57:49;2.92;;;2.72;;
49193;SDS011;35029;50.804;12.866;2022-08-01T07:00:16;2.78;;;2.55;;
49193;SDS011;35029;50.804;12.866;2022-08-01T07:02:44;3.92;;;2.67;;
49193;SDS011;35029;50.804;12.866;2022-08-01T07:05:10;3.78;;;3.08;;
49193;SDS011;35029;50.804;12.866;2022-08-01T07:07:36;3.90;;;2.50;;
49193;SDS011;35029;50.804;12.866;2022-08-01T07:10:02;3.13;;;2.42;;
49193;SDS011;35029;50.804;12.866;2022-08-01T07:12:28;6.50;;;2.88;;
49193;SDS011;35029;50.804;12.866;2022-08-01T07:14:53;3.08;;;2.65;;
49193;SDS011;35029;50.804;12.866;2022-08-01T07:17:19;6.22;;;3.22;;
49193;SDS011;35029;50.804;12.866;2022-08-01T07:19:45;3.00;;;2.72;;
49193;SDS011;35029;50.804;12.866;2022-08-01T07:22:11;4.20;;;2.88;;
49193;SDS011;35029;50.804;12.866;2022-08-01T07:24:37;3.38;;;2.70;;
49193;SDS011;35029;50.804;12.866;2022-08-01T07:27:02;3.10;;;2.53;;
49193;SDS011;35029;50.804;12.866;2022-08-01T07:29:28;4.13;;;3.30;;
49193;SDS011;35029;50.804;12.866;2022-08-01T07:31:54;2.60;;;2.40;;
49193;SDS011;35029;50.804;12.866;2022-08-01T07:34:21;4.68;;;3.33;;
49193;SDS011;35029;50.804;12.866;2022-08-01T07:36:47;3.80;;;3.30;;
49193;SDS011;35029;50.804;12.866;2022-08-01T07:39:13;5.28;;;2.92;;
49193;SDS011;35029;50.804;12.866;2022-08-01T07:41:38;3.40;;;3.10;;
49193;SDS011;35029;50.804;12.866;2022-08-01T07:44:04;3.90;;;3.50;;
49193;SDS011;35029;50.804;12.866;2022-08-01T07:46:30;3.90;;;3.60;;
49193;SDS011;35029;50.804;12.866;2022-08-01T07:48:56;4.15;;;3.58;;
49193;SDS011;35029;50.804;12.866;2022-08-01T07:51:21;3.47;;;3.17;;
49193;SDS011;35029;50.804;12.866;2022-08-01T07:53:47;5.15;;;3.40;;
49193;SDS011;35029;50.804;12.866;2022-08-01T07:56:13;3.65;;;3.33;;
49193;SDS011;35029;50.804;12.866;2022-08-01T07:58:39;3.08;;;2.88;;
49193;SDS011;35029;50.804;12.866;2022-08-01T08:01:04;3.20;;;2.90;;
49193;SDS011;35029;50.804;12.866;2022-08-01T08:03:30;3.40;;;3.10;;
49193;SDS011;35029;50.804;12.866;2022-08-01T08:05:55;4.55;;;2.88;;
49193;SDS011;35029;50.804;12.866;2022-08-01T08:08:21;4.25;;;2.88;;
49193;SDS011;35029;50.804;12.866;2022-08-01T08:10:47;3.35;;;2.72;;
49193;SDS011;35029;50.804;12.866;2022-08-01T08:13:12;3.10;;;2.80;;
49193;SDS011;35029;50.804;12.866;2022-08-01T08:15:38;3.60;;;2.78;;
49193;SDS011;35029;50.804;12.866;2022-08-01T08:18:03;3.15;;;2.95;;
49193;SDS011;35029;50.804;12.866;2022-08-01T08:20:29;3.10;;;2.80;;
49193;SDS011;35029;50.804;12.866;2022-08-01T08:22:55;3.47;;;2.80;;
49193;SDS011;35029;50.804;12.866;2022-08-01T08:25:23;2.53;;;2.33;;
49193;SDS011;35029;50.804;12.866;2022-08-01T08:27:52;2.40;;;2.20;;
49193;SDS011;35029;50.804;12.866;2022-08-01T08:30:18;2.70;;;2.50;;
49193;SDS011;35029;50.804;12.866;2022-08-01T08:32:43;2.80;;;2.28;;
49193;SDS011;35029;50.804;12.866;2022-08-01T08:35:09;3.17;;;2.72;;
49193;SDS011;35029;50.804;12.866;2022-08-01T08:37:36;2.45;;;2.25;;
49193;SDS011;35029;50.804;12.866;2022-08-01T08:40:03;2.47;;;2.28;;
49193;SDS011;35029;50.804;12.866;2022-08-01T08:42:29;2.63;;;2.08;;
49193;SDS011;35029;50.804;12.866;2022-08-01T08:44:55;5.28;;;2.05;;
49193;SDS011;35029;50.804;12.866;2022-08-01T08:47:21;2.55;;;1.98;;
49193;SDS011;35029;50.804;12.866;2022-08-01T08:49:48;2.42;;;2.20;;
49193;SDS011;35029;50.804;12.866;2022-08-01T08:52:17;3.05;;;1.80;;
49193;SDS011;35029;50.804;12.866;2022-08-01T08:54:47;2.08;;;1.88;;
49193;SDS011;35029;50.804;12.866;2022-08-01T08:57:14;3.08;;;1.70;;
49193;SDS011;35029;50.804;12.866;2022-08-01T08:59:40;2.22;;;2.00;;
49193;SDS011;35029;50.804;12.866;2022-08-01T09:02:08;2.17;;;2.00;;
49193;SDS011;35029;50.804;12.866;2022-08-01T09:04:35;2.97;;;1.63;;
49193;SDS011;35029;50.804;12.866;2022-08-01T09:07:01;5.38;;;1.63;;
49193;SDS011;35029;50.804;12.866;2022-08-01T09:09:29;1.45;;;1.35;;
49193;SDS011;35029;50.804;12.866;2022-08-01T09:11:55;1.38;;;1.20;;
49193;SDS011;35029;50.804;12.866;2022-08-01T09:14:22;1.42;;;1.33;;
49193;SDS011;35029;50.804;12.866;2022-08-01T09:17:00;1.30;;;1.20;;
49193;SDS011;35029;50.804;12.866;2022-08-01T09:19:44;2.00;;;1.27;;
49193;SDS011;35029;50.804;12.866;2022-08-01T09:22:16;1.25;;;1.15;;
49193;SDS011;35029;50.804;12.866;2022-08-01T09:27:40;3.35;;;1.27;;
49193;SDS011;35029;50.804;12.866;2022-08-01T09:30:16;1.27;;;1.17;;
49193;SDS011;35029;50.804;12.866;2022-08-01T09:32:55;1.65;;;1.35;;
49193;SDS011;35029;50.804;12.866;2022-08-01T09:35:32;1.90;;;1.50;;
49193;SDS011;35029;50.804;12.866;2022-08-01T09:38:19;2.05;;;1.30;;
49193;SDS011;35029;50.804;12.866;2022-08-01T09:40:58;5.03;;;1.80;;
49193;SDS011;35029;50.804;12.866;2022-08-01T09:43:26;6.70;;;2.40;;
49193;SDS011;35029;50.804;12.866;2022-08-01T09:45:53;2.97;;;2.13;;
49193;SDS011;35029;50.804;12.866;2022-08-01T09:48:20;3.92;;;2.20;;
49193;SDS011;35029;50.804;12.866;2022-08-01T09:50:47;4.70;;;2.15;;
49193;SDS011;35029;50.804;12.866;2022-08-01T09:53:15;2.13;;;1.60;;
49193;SDS011;35029;50.804;12.866;2022-08-01T09:55:41;4.78;;;2.22;;
49193;SDS011;35029;50.804;12.866;2022-08-01T09:58:07;2.78;;;1.98;;
49193;SDS011;35029;50.804;12.866;2022-08-01T10:00:35;2.45;;;1.95;;
49193;SDS011;35029;50.804;12.866;2022-08-01T10:03:18;3.13;;;1.58;;
49193;SDS011;35029;50.804;12.866;2022-08-01T10:05:47;2.70;;;1.48;;
49193;SDS011;35029;50.804;12.866;2022-08-01T10:08:13;3.53;;;1.25;;
49193;SDS011;35029;50.804;12.866;2022-08-01T10:10:39;2.08;;;0.80;;
49193;SDS011;35029;50.804;12.866;2022-08-01T10:13:05;0.80;;;0.80;;
49193;SDS011;35029;50.804;12.866;2022-08-01T10:15:31;1.00;;;0.80;;
49193;SDS011;35029;50.804;12.866;2022-08-01T10:17:59;1.35;;;0.75;;
49193;SDS011;35029;50.804;12.866;2022-08-01T10:20:31;1.20;;;0.88;;
49193;SDS011;35029;50.804;12.866;2022-08-01T10:22:59;0.70;;;0.70;;
49193;SDS011;35029;50.804;12.866;2022-08-01T10:25:27;0.80;;;0.80;;
49193;SDS011;35029;50.804;12.866;2022-08-01T10:27:54;1.50;;;0.80;;
49193;SDS011;35029;50.804;12.866;2022-08-01T10:30:21;0.80;;;0.80;;
49193;SDS011;35029;50.804;12.866;2022-08-01T10:32:47;0.80;;;0.80;;
49193;SDS011;35029;50.804;12.866;2022-08-01T10:35:15;1.85;;;1.20;;
49193;SDS011;35029;50.804;12.866;2022-08-01T10:37:45;5.35;;;0.90;;
49193;SDS011;35029;50.804;12.866;2022-08-01T10:40:12;1.50;;;0.70;;
49193;SDS011;35029;50.804;12.866;2022-08-01T10:42:42;2.83;;;0.85;;
49193;SDS011;35029;50.804;12.866;2022-08-01T10:45:09;0.82;;;0.70;;
49193;SDS011;35029;50.804;12.866;2022-08-01T10:47:38;3.10;;;0.85;;
49193;SDS011;35029;50.804;12.866;2022-08-01T10:50:21;1.88;;;0.65;;
49193;SDS011;35029;50.804;12.866;2022-08-01T10:55:44;2.30;;;0.98;;
49193;SDS011;35029;50.804;12.866;2022-08-01T10:58:13;1.52;;;0.90;;
49193;SDS011;35029;50.804;12.866;2022-08-01T11:00:45;2.10;;;1.02;;
49193;SDS011;35029;50.804;12.866;2022-08-01T11:03:10;0.90;;;0.80;;
49193;SDS011;35029;50.804;12.866;2022-08-01T11:05:36;4.22;;;1.00;;
49193;SDS011;35029;50.804;12.866;2022-08-01T11:08:03;1.48;;;0.98;;
49193;SDS011;35029;50.804;12.866;2022-08-01T11:10:41;1.05;;;0.80;;
49193;SDS011;35029;50.804;12.866;2022-08-01T11:13:10;0.98;;;0.88;;
49193;SDS011;35029;50.804;12.866;2022-08-01T11:15:39;0.95;;;0.88;;
49193;SDS011;35029;50.804;12.866;2022-08-01T11:20:59;1.15;;;0.90;;
49193;SDS011;35029;50.804;12.866;2022-08-01T11:23:30;0.90;;;0.80;;
49193;SDS011;35029;50.804;12.866;2022-08-01T11:26:13;1.45;;;1.13;;
49193;SDS011;35029;50.804;12.866;2022-08-01T11:28:39;0.75;;;0.75;;
49193;SDS011;35029;50.804;12.866;2022-08-01T11:38:35;0.70;;;0.68;;
49193;SDS011;35029;50.804;12.866;2022-08-01T11:41:09;2.15;;;0.93;;
49193;SDS011;35029;50.804;12.866;2022-08-01T11:43:35;1.00;;;0.90;;
49193;SDS011;35029;50.804;12.866;2022-08-01T11:46:01;2.22;;;0.80;;
49193;SDS011;35029;50.804;12.866;2022-08-01T11:48:27;2.65;;;0.85;;
49193;SDS011;35029;50.804;12.866;2022-08-01T11:50:53;2.67;;;0.70;;
49193;SDS011;35029;50.804;12.866;2022-08-01T11:53:20;1.98;;;0.70;;
49193;SDS011;35029;50.804;12.866;2022-08-01T11:55:47;1.02;;;0.82;;
49193;SDS011;35029;50.804;12.866;2022-08-01T11:58:15;0.88;;;0.80;;
49193;SDS011;35029;50.804;12.866;2022-08-01T12:00:41;3.97;;;0.90;;
49193;SDS011;35029;50.804;12.866;2022-08-01T12:03:14;1.17;;;0.80;;
49193;SDS011;35029;50.804;12.866;2022-08-01T12:05:40;1.02;;;0.90;;
49193;SDS011;35029;50.804;12.866;2022-08-01T12:08:09;0.70;;;0.57;;
49193;SDS011;35029;50.804;12.866;2022-08-01T12:10:35;0.82;;;0.82;;
49193;SDS011;35029;50.804;12.866;2022-08-01T12:13:05;0.98;;;0.98;;
49193;SDS011;35029;50.804;12.866;2022-08-01T12:15:37;0.80;;;0.80;;
49193;SDS011;35029;50.804;12.866;2022-08-01T12:18:04;1.17;;;0.85;;
49193;SDS011;35029;50.804;12.866;2022-08-01T12:20:31;2.28;;;1.30;;
49193;SDS011;35029;50.804;12.866;2022-08-01T12:23:02;3.20;;;1.77;;
49193;SDS011;35029;50.804;12.866;2022-08-01T12:25:31;1.75;;;1.08;;
49193;SDS011;35029;50.804;12.866;2022-08-01T12:28:00;2.22;;;1.13;;
49193;SDS011;35029;50.804;12.866;2022-08-01T12:30:34;2.00;;;0.80;;
49193;SDS011;35029;50.804;12.866;2022-08-01T12:33:05;1.33;;;0.90;;
49193;SDS011;35029;50.804;12.866;2022-08-01T12:35:33;0.60;;;0.60;;
49193;SDS011;35029;50.804;12.866;2022-08-01T12:38:00;1.75;;;1.13;;
49193;SDS011;35029;50.804;12.866;2022-08-01T12:40:29;0.95;;;0.88;;
49193;SDS011;35029;50.804;12.866;2022-08-01T12:43:00;0.65;;;0.65;;
49193;SDS011;35029;50.804;12.866;2022-08-01T12:45:35;2.17;;;0.80;;
49193;SDS011;35029;50.804;12.866;2022-08-01T12:48:11;2.58;;;0.93;;
49193;SDS011;35029;50.804;12.866;2022-08-01T12:50:38;1.23;;;0.80;;
49193;SDS011;35029;50.804;12.866;2022-08-01T12:53:10;0.95;;;0.73;;
49193;SDS011;35029;50.804;12.866;2022-08-01T12:55:52;1.40;;;0.68;;
49193;SDS011;35029;50.804;12.866;2022-08-01T12:58:19;0.70;;;0.70;;
49193;SDS011;35029;50.804;12.866;2022-08-01T13:00:46;0.60;;;0.60;;
49193;SDS011;35029;50.804;12.866;2022-08-01T13:08:19;0.60;;;0.57;;
49193;SDS011;35029;50.804;12.866;2022-08-01T13:10:45;0.77;;;0.77;;
49193;SDS011;35029;50.804;12.866;2022-08-01T13:13:12;0.60;;;0.60;;
49193;SDS011;35029;50.804;12.866;2022-08-01T13:15:39;0.50;;;0.50;;
49193;SDS011;35029;50.804;12.866;2022-08-01T13:24:09;1.73;;;0.80;;
49193;SDS011;35029;50.804;12.866;2022-08-01T13:26:47;0.60;;;0.60;;
49193;SDS011;35029;50.804;12.866;2022-08-01T13:29:20;0.70;;;0.70;;
49193;SDS011;35029;50.804;12.866;2022-08-01T13:31:48;1.48;;;0.60;;
49193;SDS011;35029;50.804;12.866;2022-08-01T13:34:14;0.93;;;0.60;;
49193;SDS011;35029;50.804;12.866;2022-08-01T13:36:40;2.05;;;0.60;;
49193;SDS011;35029;50.804;12.866;2022-08-01T13:39:06;3.00;;;0.80;;
49193;SDS011;35029;50.804;12.866;2022-08-01T13:41:51;0.57;;;0.57;;
49193;SDS011;35029;50.804;12.866;2022-08-01T13:44:17;1.90;;;0.93;;
49193;SDS011;35029;50.804;12.866;2022-08-01T13:46:43;1.50;;;0.70;;
49193;SDS011;35029;50.804;12.866;2022-08-01T13:49:10;1.60;;;0.50;;
49193;SDS011;35029;50.804;12.866;2022-08-01T13:51:36;0.73;;;0.60;;
49193;SDS011;35029;50.804;12.866;2022-08-01T13:54:03;2.45;;;0.63;;
49193;SDS011;35029;50.804;12.866;2022-08-01T13:56:30;1.50;;;0.80;;
49193;SDS011;35029;50.804;12.866;2022-08-01T13:58:57;1.30;;;0.90;;
49193;SDS011;35029;50.804;12.866;2022-08-01T14:01:23;0.50;;;0.50;;
49193;SDS011;35029;50.804;12.866;2022-08-01T14:03:49;2.00;;;0.70;;
49193;SDS011;35029;50.804;12.866;2022-08-01T14:06:16;1.40;;;0.88;;
49193;SDS011;35029;50.804;12.866;2022-08-01T14:08:42;2.65;;;1.17;;
49193;SDS011;35029;50.804;12.866;2022-08-01T14:11:08;2.42;;;1.30;;
49193;SDS011;35029;50.804;12.866;2022-08-01T14:13:34;3.80;;;0.90;;
49193;SDS011;35029;50.804;12.866;2022-08-01T14:16:02;3.38;;;0.90;;
49193;SDS011;35029;50.804;12.866;2022-08-01T14:18:27;1.55;;;0.73;;
49193;SDS011;35029;50.804;12.866;2022-08-01T14:20:53;0.70;;;0.50;;
49193;SDS011;35029;50.804;12.866;2022-08-01T14:23:18;1.70;;;0.75;;
49193;SDS011;35029;50.804;12.866;2022-08-01T14:25:44;3.13;;;1.63;;
49193;SDS011;35029;50.804;12.866;2022-08-01T14:28:09;3.38;;;1.60;;
49193;SDS011;35029;50.804;12.866;2022-08-01T14:30:35;1.75;;;1.30;;
49193;SDS011;35029;50.804;12.866;2022-08-01T14:33:01;1.15;;;0.98;;
49193;SDS011;35029;50.804;12.866;2022-08-01T14:35:27;0.80;;;0.80;;
49193;SDS011;35029;50.804;12.866;2022-08-01T14:37:52;1.65;;;1.27;;
49193;SDS011;35029;50.804;12.866;2022-08-01T14:40:18;1.45;;;1.05;;
49193;SDS011;35029;50.804;12.866;2022-08-01T14:42:44;2.05;;;1.35;;
49193;SDS011;35029;50.804;12.866;2022-08-01T14:45:10;0.82;;;0.80;;
49193;SDS011;35029;50.804;12.866;2022-08-01T14:47:38;0.98;;;0.80;;
49193;SDS011;35029;50.804;12.866;2022-08-01T14:50:06;14.60;;;4.25;;
49193;SDS011;35029;50.804;12.866;2022-08-01T14:52:34;1.52;;;1.08;;
49193;SDS011;35029;50.804;12.866;2022-08-01T14:55:00;0.95;;;0.80;;
49193;SDS011;35029;50.804;12.866;2022-08-01T14:57:28;1.10;;;0.70;;
49193;SDS011;35029;50.804;12.866;2022-08-01T14:59:54;2.95;;;0.73;;
49193;SDS011;35029;50.804;12.866;2022-08-01T15:02:19;3.15;;;1.10;;
49193;SDS011;35029;50.804;12.866;2022-08-01T15:04:46;2.25;;;1.20;;
49193;SDS011;35029;50.804;12.866;2022-08-01T15:07:12;4.50;;;1.33;;
49193;SDS011;35029;50.804;12.866;2022-08-01T15:09:38;1.67;;;1.42;;
49193;SDS011;35029;50.804;12.866;2022-08-01T15:12:04;1.92;;;1.00;;
49193;SDS011;35029;50.804;12.866;2022-08-01T15:14:30;0.70;;;0.60;;
49193;SDS011;35029;50.804;12.866;2022-08-01T15:17:14;1.23;;;0.95;;